sensor_id;sensor_type;location;lat;lon;timestamp;P1;durP1;ratioP1;P2;durP2;ratioP2
46216;SDS011;47258;59.424;13.482;2023-01-04T00:02:00;4.88;;;2.78;;
46216;SDS011;47258;59.424;13.482;2023-01-04T00:04:27;2.80;;;2.03;;
46216;SDS011;47258;59.424;13.482;2023-01-04T00:06:56;2.47;;;2.08;;
46216;SDS011;47258;59.424;13.482;2023-01-04T00:09:23;4.53;;;2.28;;
46216;SDS011;47258;59.424;13.482;2023-01-04T00:11:50;5.22;;;3.00;;
46216;SDS011;47258;59.424;13.482;2023-01-04T00:14:17;3.45;;;2.55;;
46216;SDS011;47258;59.424;13.482;2023-01-04T00:16:44;4.30;;;2.65;;
46216;SDS011;47258;59.424;13.482;2023-01-04T00:19:11;2.75;;;2.03;;
46216;SDS011;47258;59.424;13.482;2023-01-04T00:21:38;3.83;;;2.40;;
46216;SDS011;47258;59.424;13.482;2023-01-04T00:24:08;3.92;;;2.42;;
46216;SDS011;47258;59.424;13.482;2023-01-04T00:26:39;4.18;;;2.60;;
46216;SDS011;47258;59.424;13.482;2023-01-04T00:29:08;2.75;;;2.28;;
46216;SDS011;47258;59.424;13.482;2023-01-04T00:31:38;2.08;;;1.88;;
46216;SDS011;47258;59.424;13.482;2023-01-04T00:34:05;3.88;;;1.95;;
46216;SDS011;47258;59.424;13.482;2023-01-04T00:36:32;3.78;;;2.35;;
46216;SDS011;47258;59.424;13.482;2023-01-04T00:39:00;2.00;;;1.75;;
46216;SDS011;47258;59.424;13.482;2023-01-04T00:41:36;3.65;;;2.15;;
46216;SDS011;47258;59.424;13.482;2023-01-04T00:44:04;2.80;;;2.20;;
46216;SDS011;47258;59.424;13.482;2023-01-04T00:46:32;4.25;;;2.75;;
46216;SDS011;47258;59.424;13.482;2023-01-04T00:48:59;2.85;;;2.63;;
46216;SDS011;47258;59.424;13.482;2023-01-04T00:51:27;2.20;;;1.80;;
46216;SDS011;47258;59.424;13.482;2023-01-04T00:53:55;4.55;;;2.95;;
46216;SDS011;47258;59.424;13.482;2023-01-04T00:56:22;2.22;;;1.98;;
46216;SDS011;47258;59.424;13.482;2023-01-04T00:58:53;2.38;;;2.03;;
46216;SDS011;47258;59.424;13.482;2023-01-04T01:01:21;2.95;;;2.67;;
46216;SDS011;47258;59.424;13.482;2023-01-04T01:03:51;3.08;;;1.70;;
46216;SDS011;47258;59.424;13.482;2023-01-04T01:06:18;3.03;;;2.05;;
46216;SDS011;47258;59.424;13.482;2023-01-04T01:08:45;3.45;;;2.05;;
46216;SDS011;47258;59.424;13.482;2023-01-04T01:11:12;4.53;;;2.53;;
46216;SDS011;47258;59.424;13.482;2023-01-04T01:13:40;3.60;;;2.28;;
46216;SDS011;47258;59.424;13.482;2023-01-04T01:16:09;3.63;;;2.42;;
46216;SDS011;47258;59.424;13.482;2023-01-04T01:18:38;4.00;;;2.67;;
46216;SDS011;47258;59.424;13.482;2023-01-04T01:21:07;3.33;;;2.08;;
46216;SDS011;47258;59.424;13.482;2023-01-04T01:23:35;3.22;;;1.98;;
46216;SDS011;47258;59.424;13.482;2023-01-04T01:26:03;5.18;;;2.30;;
46216;SDS011;47258;59.424;13.482;2023-01-04T01:28:32;4.28;;;2.83;;
46216;SDS011;47258;59.424;13.482;2023-01-04T01:31:04;3.75;;;1.83;;
46216;SDS011;47258;59.424;13.482;2023-01-04T01:33:34;3.53;;;2.35;;
46216;SDS011;47258;59.424;13.482;2023-01-04T01:36:01;4.53;;;2.58;;
46216;SDS011;47258;59.424;13.482;2023-01-04T01:38:29;4.13;;;3.00;;
46216;SDS011;47258;59.424;13.482;2023-01-04T01:40:56;3.83;;;2.42;;
46216;SDS011;47258;59.424;13.482;2023-01-04T01:46:13;3.55;;;2.15;;
46216;SDS011;47258;59.424;13.482;2023-01-04T01:48:42;2.10;;;1.77;;
46216;SDS011;47258;59.424;13.482;2023-01-04T01:51:10;3.58;;;1.70;;
46216;SDS011;47258;59.424;13.482;2023-01-04T01:53:40;3.63;;;2.15;;
46216;SDS011;47258;59.424;13.482;2023-01-04T01:58:38;2.78;;;1.88;;
46216;SDS011;47258;59.424;13.482;2023-01-04T02:01:07;3.33;;;1.80;;
46216;SDS011;47258;59.424;13.482;2023-01-04T02:03:35;4.68;;;2.50;;
46216;SDS011;47258;59.424;13.482;2023-01-04T02:06:07;3.92;;;2.65;;
46216;SDS011;47258;59.424;13.482;2023-01-04T02:08:38;3.47;;;2.75;;
46216;SDS011;47258;59.424;13.482;2023-01-04T02:11:07;5.20;;;3.03;;
46216;SDS011;47258;59.424;13.482;2023-01-04T02:13:35;2.88;;;1.55;;
46216;SDS011;47258;59.424;13.482;2023-01-04T02:16:23;2.22;;;1.77;;
46216;SDS011;47258;59.424;13.482;2023-01-04T02:19:00;2.47;;;1.73;;
46216;SDS011;47258;59.424;13.482;2023-01-04T02:21:39;3.05;;;2.33;;
46216;SDS011;47258;59.424;13.482;2023-01-04T02:24:31;4.60;;;1.95;;
46216;SDS011;47258;59.424;13.482;2023-01-04T02:33:13;3.38;;;2.25;;
46216;SDS011;47258;59.424;13.482;2023-01-04T02:35:52;3.17;;;1.85;;
46216;SDS011;47258;59.424;13.482;2023-01-04T02:38:39;3.40;;;1.92;;
46216;SDS011;47258;59.424;13.482;2023-01-04T02:41:18;4.97;;;1.77;;
46216;SDS011;47258;59.424;13.482;2023-01-04T02:43:54;2.53;;;1.65;;
46216;SDS011;47258;59.424;13.482;2023-01-04T02:46:44;3.85;;;2.15;;
46216;SDS011;47258;59.424;13.482;2023-01-04T02:49:15;2.90;;;1.83;;
46216;SDS011;47258;59.424;13.482;2023-01-04T02:51:59;2.40;;;1.65;;
46216;SDS011;47258;59.424;13.482;2023-01-04T02:54:27;7.70;;;2.10;;
46216;SDS011;47258;59.424;13.482;2023-01-04T02:57:03;2.60;;;1.77;;
46216;SDS011;47258;59.424;13.482;2023-01-04T02:59:47;3.20;;;2.08;;
46216;SDS011;47258;59.424;13.482;2023-01-04T03:02:28;2.40;;;1.60;;
46216;SDS011;47258;59.424;13.482;2023-01-04T03:05:31;4.28;;;2.28;;
46216;SDS011;47258;59.424;13.482;2023-01-04T03:08:27;2.17;;;1.90;;
46216;SDS011;47258;59.424;13.482;2023-01-04T03:11:00;2.20;;;1.73;;
46216;SDS011;47258;59.424;13.482;2023-01-04T03:13:51;1.55;;;1.45;;
46216;SDS011;47258;59.424;13.482;2023-01-04T03:16:20;4.40;;;1.63;;
46216;SDS011;47258;59.424;13.482;2023-01-04T03:18:50;2.33;;;1.83;;
46216;SDS011;47258;59.424;13.482;2023-01-04T03:21:21;5.38;;;2.22;;
46216;SDS011;47258;59.424;13.482;2023-01-04T03:23:52;2.83;;;1.75;;
46216;SDS011;47258;59.424;13.482;2023-01-04T03:26:40;1.50;;;1.40;;
46216;SDS011;47258;59.424;13.482;2023-01-04T03:29:30;2.65;;;1.90;;
46216;SDS011;47258;59.424;13.482;2023-01-04T03:32:20;4.32;;;2.15;;
46216;SDS011;47258;59.424;13.482;2023-01-04T03:35:09;3.63;;;1.98;;
46216;SDS011;47258;59.424;13.482;2023-01-04T03:40:39;4.38;;;2.35;;
46216;SDS011;47258;59.424;13.482;2023-01-04T03:43:28;6.47;;;2.47;;
46216;SDS011;47258;59.424;13.482;2023-01-04T03:46:20;2.22;;;1.52;;
46216;SDS011;47258;59.424;13.482;2023-01-04T03:49:15;3.50;;;1.92;;
46216;SDS011;47258;59.424;13.482;2023-01-04T03:51:49;3.97;;;1.65;;
46216;SDS011;47258;59.424;13.482;2023-01-04T03:54:22;2.88;;;1.77;;
46216;SDS011;47258;59.424;13.482;2023-01-04T03:56:54;3.15;;;1.90;;
46216;SDS011;47258;59.424;13.482;2023-01-04T03:59:23;2.00;;;1.70;;
46216;SDS011;47258;59.424;13.482;2023-01-04T04:01:51;3.13;;;1.60;;
46216;SDS011;47258;59.424;13.482;2023-01-04T04:04:18;4.90;;;2.40;;
46216;SDS011;47258;59.424;13.482;2023-01-04T04:07:03;2.00;;;1.80;;
46216;SDS011;47258;59.424;13.482;2023-01-04T04:09:49;5.15;;;1.70;;
46216;SDS011;47258;59.424;13.482;2023-01-04T04:12:16;3.50;;;1.90;;
46216;SDS011;47258;59.424;13.482;2023-01-04T04:14:43;3.20;;;2.10;;
46216;SDS011;47258;59.424;13.482;2023-01-04T04:17:10;2.08;;;1.58;;
46216;SDS011;47258;59.424;13.482;2023-01-04T04:19:37;3.78;;;2.50;;
46216;SDS011;47258;59.424;13.482;2023-01-04T04:22:05;4.22;;;1.95;;
46216;SDS011;47258;59.424;13.482;2023-01-04T04:24:32;6.18;;;2.50;;
46216;SDS011;47258;59.424;13.482;2023-01-04T04:27:01;3.60;;;2.05;;
46216;SDS011;47258;59.424;13.482;2023-01-04T04:29:28;2.50;;;1.47;;
46216;SDS011;47258;59.424;13.482;2023-01-04T04:31:55;1.88;;;1.35;;
46216;SDS011;47258;59.424;13.482;2023-01-04T04:34:22;2.97;;;2.00;;
46216;SDS011;47258;59.424;13.482;2023-01-04T04:36:49;4.85;;;2.55;;
46216;SDS011;47258;59.424;13.482;2023-01-04T04:39:16;1.90;;;1.70;;
46216;SDS011;47258;59.424;13.482;2023-01-04T04:41:43;5.43;;;1.52;;
46216;SDS011;47258;59.424;13.482;2023-01-04T04:44:11;4.68;;;1.80;;
46216;SDS011;47258;59.424;13.482;2023-01-04T04:46:39;3.15;;;1.70;;
46216;SDS011;47258;59.424;13.482;2023-01-04T04:49:07;1.42;;;1.27;;
46216;SDS011;47258;59.424;13.482;2023-01-04T04:51:34;2.45;;;1.55;;
46216;SDS011;47258;59.424;13.482;2023-01-04T04:54:02;1.75;;;1.45;;
46216;SDS011;47258;59.424;13.482;2023-01-04T04:56:29;1.75;;;1.58;;
46216;SDS011;47258;59.424;13.482;2023-01-04T04:58:57;2.70;;;2.22;;
46216;SDS011;47258;59.424;13.482;2023-01-04T05:01:25;6.57;;;1.67;;
46216;SDS011;47258;59.424;13.482;2023-01-04T05:03:52;3.07;;;1.27;;
46216;SDS011;47258;59.424;13.482;2023-01-04T05:06:19;3.55;;;1.52;;
46216;SDS011;47258;59.424;13.482;2023-01-04T05:08:46;2.88;;;1.42;;
46216;SDS011;47258;59.424;13.482;2023-01-04T05:11:14;2.42;;;1.52;;
46216;SDS011;47258;59.424;13.482;2023-01-04T05:14:01;3.17;;;1.55;;
46216;SDS011;47258;59.424;13.482;2023-01-04T05:16:28;3.20;;;1.42;;
46216;SDS011;47258;59.424;13.482;2023-01-04T05:18:55;3.47;;;1.50;;
46216;SDS011;47258;59.424;13.482;2023-01-04T05:21:22;1.13;;;1.02;;
46216;SDS011;47258;59.424;13.482;2023-01-04T05:23:50;3.17;;;1.58;;
46216;SDS011;47258;59.424;13.482;2023-01-04T05:26:17;2.03;;;1.35;;
46216;SDS011;47258;59.424;13.482;2023-01-04T05:28:44;3.05;;;1.60;;
46216;SDS011;47258;59.424;13.482;2023-01-04T05:31:11;1.42;;;1.30;;
46216;SDS011;47258;59.424;13.482;2023-01-04T05:33:40;1.98;;;1.30;;
46216;SDS011;47258;59.424;13.482;2023-01-04T05:36:07;2.13;;;1.50;;
46216;SDS011;47258;59.424;13.482;2023-01-04T05:38:34;4.10;;;1.55;;
46216;SDS011;47258;59.424;13.482;2023-01-04T05:41:01;1.65;;;1.30;;
46216;SDS011;47258;59.424;13.482;2023-01-04T05:43:28;3.88;;;1.25;;
46216;SDS011;47258;59.424;13.482;2023-01-04T05:45:55;1.77;;;1.23;;
46216;SDS011;47258;59.424;13.482;2023-01-04T05:48:23;1.73;;;1.40;;
46216;SDS011;47258;59.424;13.482;2023-01-04T05:50:51;2.28;;;1.27;;
46216;SDS011;47258;59.424;13.482;2023-01-04T05:53:19;1.38;;;1.02;;
46216;SDS011;47258;59.424;13.482;2023-01-04T05:55:46;2.15;;;1.67;;
46216;SDS011;47258;59.424;13.482;2023-01-04T05:58:14;2.35;;;1.60;;
46216;SDS011;47258;59.424;13.482;2023-01-04T06:00:41;2.13;;;1.27;;
46216;SDS011;47258;59.424;13.482;2023-01-04T06:03:08;2.38;;;0.90;;
46216;SDS011;47258;59.424;13.482;2023-01-04T06:05:35;1.85;;;1.20;;
46216;SDS011;47258;59.424;13.482;2023-01-04T06:08:04;1.33;;;1.13;;
46216;SDS011;47258;59.424;13.482;2023-01-04T06:10:31;1.70;;;1.00;;
46216;SDS011;47258;59.424;13.482;2023-01-04T06:12:58;1.60;;;1.10;;
46216;SDS011;47258;59.424;13.482;2023-01-04T06:15:25;1.90;;;1.20;;
46216;SDS011;47258;59.424;13.482;2023-01-04T06:17:52;2.35;;;1.20;;
46216;SDS011;47258;59.424;13.482;2023-01-04T06:20:19;1.35;;;1.20;;
46216;SDS011;47258;59.424;13.482;2023-01-04T06:22:46;1.42;;;1.33;;
46216;SDS011;47258;59.424;13.482;2023-01-04T06:25:15;2.08;;;0.90;;
46216;SDS011;47258;59.424;13.482;2023-01-04T06:27:42;2.72;;;1.05;;
46216;SDS011;47258;59.424;13.482;2023-01-04T06:30:10;1.58;;;1.13;;
46216;SDS011;47258;59.424;13.482;2023-01-04T06:32:37;1.65;;;1.13;;
46216;SDS011;47258;59.424;13.482;2023-01-04T06:35:04;1.00;;;1.00;;
46216;SDS011;47258;59.424;13.482;2023-01-04T06:37:31;1.23;;;1.13;;
46216;SDS011;47258;59.424;13.482;2023-01-04T06:39:59;1.33;;;0.80;;
46216;SDS011;47258;59.424;13.482;2023-01-04T06:42:28;1.85;;;0.98;;
46216;SDS011;47258;59.424;13.482;2023-01-04T06:45:10;0.90;;;0.57;;
46216;SDS011;47258;59.424;13.482;2023-01-04T06:47:38;1.15;;;1.05;;
46216;SDS011;47258;59.424;13.482;2023-01-04T06:50:06;0.95;;;0.90;;
46216;SDS011;47258;59.424;13.482;2023-01-04T06:52:34;1.10;;;1.02;;
46216;SDS011;47258;59.424;13.482;2023-01-04T06:55:01;1.73;;;1.10;;
46216;SDS011;47258;59.424;13.482;2023-01-04T06:57:29;0.98;;;0.88;;
46216;SDS011;47258;59.424;13.482;2023-01-04T06:59:56;4.68;;;1.08;;
46216;SDS011;47258;59.424;13.482;2023-01-04T07:02:23;1.90;;;0.80;;
46216;SDS011;47258;59.424;13.482;2023-01-04T07:04:51;2.47;;;1.20;;
46216;SDS011;47258;59.424;13.482;2023-01-04T07:07:18;0.68;;;0.68;;
46216;SDS011;47258;59.424;13.482;2023-01-04T07:09:45;2.08;;;0.95;;
46216;SDS011;47258;59.424;13.482;2023-01-04T07:12:12;0.75;;;0.50;;
46216;SDS011;47258;59.424;13.482;2023-01-04T07:14:40;1.50;;;1.10;;
46216;SDS011;47258;59.424;13.482;2023-01-04T07:17:07;0.73;;;0.73;;
46216;SDS011;47258;59.424;13.482;2023-01-04T07:19:34;0.98;;;0.65;;
46216;SDS011;47258;59.424;13.482;2023-01-04T07:22:01;0.77;;;0.77;;
46216;SDS011;47258;59.424;13.482;2023-01-04T07:24:28;1.63;;;1.05;;
46216;SDS011;47258;59.424;13.482;2023-01-04T07:26:55;1.00;;;0.90;;
46216;SDS011;47258;59.424;13.482;2023-01-04T07:29:24;1.55;;;0.98;;
46216;SDS011;47258;59.424;13.482;2023-01-04T07:31:52;3.10;;;2.10;;
46216;SDS011;47258;59.424;13.482;2023-01-04T07:34:20;0.80;;;0.77;;
46216;SDS011;47258;59.424;13.482;2023-01-04T07:36:49;1.40;;;1.00;;
46216;SDS011;47258;59.424;13.482;2023-01-04T07:39:16;1.45;;;0.70;;
46216;SDS011;47258;59.424;13.482;2023-01-04T07:41:44;1.63;;;0.82;;
46216;SDS011;47258;59.424;13.482;2023-01-04T07:44:12;1.20;;;1.08;;
46216;SDS011;47258;59.424;13.482;2023-01-04T07:46:39;1.52;;;0.80;;
46216;SDS011;47258;59.424;13.482;2023-01-04T07:49:11;1.27;;;0.90;;
46216;SDS011;47258;59.424;13.482;2023-01-04T07:51:39;3.40;;;1.75;;
46216;SDS011;47258;59.424;13.482;2023-01-04T07:54:06;2.70;;;1.17;;
46216;SDS011;47258;59.424;13.482;2023-01-04T07:56:34;5.50;;;1.92;;
46216;SDS011;47258;59.424;13.482;2023-01-04T07:59:01;2.50;;;1.55;;
46216;SDS011;47258;59.424;13.482;2023-01-04T08:03:59;1.95;;;1.23;;
46216;SDS011;47258;59.424;13.482;2023-01-04T08:06:27;2.42;;;1.08;;
46216;SDS011;47258;59.424;13.482;2023-01-04T08:08:54;3.00;;;1.43;;
46216;SDS011;47258;59.424;13.482;2023-01-04T08:11:23;2.35;;;1.52;;
46216;SDS011;47258;59.424;13.482;2023-01-04T08:13:50;2.15;;;1.15;;
46216;SDS011;47258;59.424;13.482;2023-01-04T08:16:18;1.55;;;1.00;;
46216;SDS011;47258;59.424;13.482;2023-01-04T08:18:47;1.90;;;1.05;;
46216;SDS011;47258;59.424;13.482;2023-01-04T08:21:17;3.03;;;1.27;;
46216;SDS011;47258;59.424;13.482;2023-01-04T08:23:46;2.22;;;0.93;;
46216;SDS011;47258;59.424;13.482;2023-01-04T08:26:14;1.48;;;1.38;;
46216;SDS011;47258;59.424;13.482;2023-01-04T08:28:42;9.82;;;3.75;;
46216;SDS011;47258;59.424;13.482;2023-01-04T08:31:10;17.75;;;7.68;;
46216;SDS011;47258;59.424;13.482;2023-01-04T08:36:07;1.20;;;1.10;;
46216;SDS011;47258;59.424;13.482;2023-01-04T08:38:35;1.27;;;1.15;;
46216;SDS011;47258;59.424;13.482;2023-01-04T08:41:04;3.17;;;1.60;;
46216;SDS011;47258;59.424;13.482;2023-01-04T08:43:32;0.93;;;0.93;;
46216;SDS011;47258;59.424;13.482;2023-01-04T08:45:59;2.45;;;0.90;;
46216;SDS011;47258;59.424;13.482;2023-01-04T08:48:27;1.60;;;1.35;;
46216;SDS011;47258;59.424;13.482;2023-01-04T08:50:56;2.50;;;1.15;;
46216;SDS011;47258;59.424;13.482;2023-01-04T08:53:23;1.00;;;0.63;;
46216;SDS011;47258;59.424;13.482;2023-01-04T08:55:51;0.85;;;0.80;;
46216;SDS011;47258;59.424;13.482;2023-01-04T08:58:20;2.95;;;1.23;;
46216;SDS011;47258;59.424;13.482;2023-01-04T09:00:48;1.40;;;0.60;;
46216;SDS011;47258;59.424;13.482;2023-01-04T09:03:16;2.45;;;0.70;;
46216;SDS011;47258;59.424;13.482;2023-01-04T09:05:43;1.40;;;1.30;;
46216;SDS011;47258;59.424;13.482;2023-01-04T09:08:10;1.27;;;0.90;;
46216;SDS011;47258;59.424;13.482;2023-01-04T09:10:37;3.47;;;1.80;;
46216;SDS011;47258;59.424;13.482;2023-01-04T09:13:05;3.72;;;1.38;;
46216;SDS011;47258;59.424;13.482;2023-01-04T09:15:34;1.33;;;0.73;;
46216;SDS011;47258;59.424;13.482;2023-01-04T09:18:01;0.97;;;0.60;;
46216;SDS011;47258;59.424;13.482;2023-01-04T09:20:29;0.47;;;0.47;;
46216;SDS011;47258;59.424;13.482;2023-01-04T09:22:56;1.55;;;0.82;;
46216;SDS011;47258;59.424;13.482;2023-01-04T09:25:23;2.47;;;0.70;;
46216;SDS011;47258;59.424;13.482;2023-01-04T09:27:51;1.77;;;0.90;;
46216;SDS011;47258;59.424;13.482;2023-01-04T09:30:18;0.60;;;0.60;;
46216;SDS011;47258;59.424;13.482;2023-01-04T09:32:46;1.50;;;1.13;;
46216;SDS011;47258;59.424;13.482;2023-01-04T09:35:13;1.87;;;1.20;;
46216;SDS011;47258;59.424;13.482;2023-01-04T09:37:40;3.10;;;1.20;;
46216;SDS011;47258;59.424;13.482;2023-01-04T09:40:09;1.77;;;1.08;;
46216;SDS011;47258;59.424;13.482;2023-01-04T09:42:45;1.85;;;1.08;;
46216;SDS011;47258;59.424;13.482;2023-01-04T09:47:44;1.60;;;0.85;;
46216;SDS011;47258;59.424;13.482;2023-01-04T09:50:17;1.83;;;1.00;;
46216;SDS011;47258;59.424;13.482;2023-01-04T09:52:54;1.95;;;1.13;;
46216;SDS011;47258;59.424;13.482;2023-01-04T09:55:30;4.05;;;1.73;;
46216;SDS011;47258;59.424;13.482;2023-01-04T09:58:04;1.92;;;1.20;;
46216;SDS011;47258;59.424;13.482;2023-01-04T10:00:39;0.90;;;0.90;;
46216;SDS011;47258;59.424;13.482;2023-01-04T10:03:12;2.80;;;0.70;;
46216;SDS011;47258;59.424;13.482;2023-01-04T10:05:42;0.93;;;0.88;;
46216;SDS011;47258;59.424;13.482;2023-01-04T10:08:11;1.17;;;1.05;;
46216;SDS011;47258;59.424;13.482;2023-01-04T10:10:49;0.88;;;0.68;;
46216;SDS011;47258;59.424;13.482;2023-01-04T10:13:30;0.93;;;0.80;;
46216;SDS011;47258;59.424;13.482;2023-01-04T10:16:14;0.60;;;0.60;;
46216;SDS011;47258;59.424;13.482;2023-01-04T10:18:53;1.10;;;0.80;;
46216;SDS011;47258;59.424;13.482;2023-01-04T10:21:32;0.70;;;0.70;;
46216;SDS011;47258;59.424;13.482;2023-01-04T10:27:03;2.97;;;1.02;;
46216;SDS011;47258;59.424;13.482;2023-01-04T10:29:42;0.90;;;0.90;;
46216;SDS011;47258;59.424;13.482;2023-01-04T10:32:18;1.17;;;0.90;;
46216;SDS011;47258;59.424;13.482;2023-01-04T10:34:54;1.67;;;0.60;;
46216;SDS011;47258;59.424;13.482;2023-01-04T10:37:23;1.17;;;0.85;;
46216;SDS011;47258;59.424;13.482;2023-01-04T10:39:53;2.75;;;0.82;;
46216;SDS011;47258;59.424;13.482;2023-01-04T10:42:24;0.90;;;0.68;;
46216;SDS011;47258;59.424;13.482;2023-01-04T10:45:04;2.95;;;1.65;;
46216;SDS011;47258;59.424;13.482;2023-01-04T10:47:41;0.73;;;0.60;;
46216;SDS011;47258;59.424;13.482;2023-01-04T10:50:18;1.40;;;0.85;;
46216;SDS011;47258;59.424;13.482;2023-01-04T10:52:53;1.98;;;0.77;;
46216;SDS011;47258;59.424;13.482;2023-01-04T10:55:26;4.85;;;0.98;;
46216;SDS011;47258;59.424;13.482;2023-01-04T10:57:57;0.43;;;0.43;;
46216;SDS011;47258;59.424;13.482;2023-01-04T11:00:29;0.43;;;0.43;;
46216;SDS011;47258;59.424;13.482;2023-01-04T11:03:00;0.93;;;0.28;;
46216;SDS011;47258;59.424;13.482;2023-01-04T11:05:34;1.33;;;0.30;;
46216;SDS011;47258;59.424;13.482;2023-01-04T11:08:07;1.38;;;0.47;;
46216;SDS011;47258;59.424;13.482;2023-01-04T11:10:39;1.13;;;0.60;;
46216;SDS011;47258;59.424;13.482;2023-01-04T11:13:08;0.40;;;0.40;;
46216;SDS011;47258;59.424;13.482;2023-01-04T11:15:36;0.43;;;0.30;;
46216;SDS011;47258;59.424;13.482;2023-01-04T11:18:04;4.18;;;0.77;;
46216;SDS011;47258;59.424;13.482;2023-01-04T11:20:34;1.08;;;0.55;;
46216;SDS011;47258;59.424;13.482;2023-01-04T11:23:02;0.70;;;0.38;;
46216;SDS011;47258;59.424;13.482;2023-01-04T11:25:34;0.65;;;0.65;;
46216;SDS011;47258;59.424;13.482;2023-01-04T11:28:07;0.55;;;0.40;;
46216;SDS011;47258;59.424;13.482;2023-01-04T11:30:45;11.80;;;1.23;;
46216;SDS011;47258;59.424;13.482;2023-01-04T11:33:25;2.55;;;0.80;;
46216;SDS011;47258;59.424;13.482;2023-01-04T11:35:55;0.50;;;0.50;;
46216;SDS011;47258;59.424;13.482;2023-01-04T11:38:23;1.10;;;0.50;;
46216;SDS011;47258;59.424;13.482;2023-01-04T11:40:54;1.08;;;0.95;;
46216;SDS011;47258;59.424;13.482;2023-01-04T11:43:22;0.60;;;0.60;;
46216;SDS011;47258;59.424;13.482;2023-01-04T11:45:52;0.77;;;0.77;;
46216;SDS011;47258;59.424;13.482;2023-01-04T11:48:29;2.03;;;0.80;;
46216;SDS011;47258;59.424;13.482;2023-01-04T11:51:02;0.57;;;0.57;;
46216;SDS011;47258;59.424;13.482;2023-01-04T11:53:32;5.60;;;0.90;;
46216;SDS011;47258;59.424;13.482;2023-01-04T11:56:07;0.57;;;0.57;;
46216;SDS011;47258;59.424;13.482;2023-01-04T11:58:37;0.75;;;0.60;;
46216;SDS011;47258;59.424;13.482;2023-01-04T12:01:04;5.72;;;0.90;;
46216;SDS011;47258;59.424;13.482;2023-01-04T12:03:36;2.40;;;1.05;;
46216;SDS011;47258;59.424;13.482;2023-01-04T12:06:09;1.70;;;0.57;;
46216;SDS011;47258;59.424;13.482;2023-01-04T12:08:39;3.33;;;1.08;;
46216;SDS011;47258;59.424;13.482;2023-01-04T12:11:08;3.10;;;0.73;;
46216;SDS011;47258;59.424;13.482;2023-01-04T12:13:46;1.67;;;0.75;;
46216;SDS011;47258;59.424;13.482;2023-01-04T12:16:15;1.90;;;0.73;;
46216;SDS011;47258;59.424;13.482;2023-01-04T12:18:51;1.75;;;0.52;;
46216;SDS011;47258;59.424;13.482;2023-01-04T12:21:21;5.45;;;0.85;;
46216;SDS011;47258;59.424;13.482;2023-01-04T12:23:50;0.77;;;0.77;;
46216;SDS011;47258;59.424;13.482;2023-01-04T12:26:19;1.80;;;1.13;;
46216;SDS011;47258;59.424;13.482;2023-01-04T12:28:47;0.75;;;0.60;;
46216;SDS011;47258;59.424;13.482;2023-01-04T12:31:30;0.73;;;0.50;;
46216;SDS011;47258;59.424;13.482;2023-01-04T12:33:59;3.55;;;0.77;;
46216;SDS011;47258;59.424;13.482;2023-01-04T12:37:10;0.75;;;0.45;;
46216;SDS011;47258;59.424;13.482;2023-01-04T12:43:24;0.85;;;0.68;;
46216;SDS011;47258;59.424;13.482;2023-01-04T12:55:22;1.58;;;1.10;;
46216;SDS011;47258;59.424;13.482;2023-01-04T12:57:52;1.15;;;0.93;;
46216;SDS011;47258;59.424;13.482;2023-01-04T13:00:19;1.73;;;0.70;;
46216;SDS011;47258;59.424;13.482;2023-01-04T13:02:47;1.65;;;0.88;;
46216;SDS011;47258;59.424;13.482;2023-01-04T13:05:40;1.05;;;0.88;;
46216;SDS011;47258;59.424;13.482;2023-01-04T13:08:13;1.40;;;0.52;;
46216;SDS011;47258;59.424;13.482;2023-01-04T13:10:41;1.00;;;0.90;;
46216;SDS011;47258;59.424;13.482;2023-01-04T13:13:23;1.50;;;0.82;;
46216;SDS011;47258;59.424;13.482;2023-01-04T13:16:00;0.52;;;0.52;;
46216;SDS011;47258;59.424;13.482;2023-01-04T13:18:39;0.77;;;0.75;;
46216;SDS011;47258;59.424;13.482;2023-01-04T13:21:09;3.85;;;0.75;;
46216;SDS011;47258;59.424;13.482;2023-01-04T13:23:41;7.38;;;1.15;;
46216;SDS011;47258;59.424;13.482;2023-01-04T13:26:27;3.28;;;0.57;;
46216;SDS011;47258;59.424;13.482;2023-01-04T13:29:06;3.05;;;0.77;;
46216;SDS011;47258;59.424;13.482;2023-01-04T13:31:39;1.43;;;1.03;;
46216;SDS011;47258;59.424;13.482;2023-01-04T13:34:15;2.63;;;0.80;;
46216;SDS011;47258;59.424;13.482;2023-01-04T13:36:54;1.35;;;0.50;;
46216;SDS011;47258;59.424;13.482;2023-01-04T13:39:32;1.65;;;0.73;;
46216;SDS011;47258;59.424;13.482;2023-01-04T13:42:00;0.55;;;0.55;;
46216;SDS011;47258;59.424;13.482;2023-01-04T13:47:43;0.63;;;0.63;;
46216;SDS011;47258;59.424;13.482;2023-01-04T13:50:16;1.55;;;0.80;;
46216;SDS011;47258;59.424;13.482;2023-01-04T13:52:57;0.20;;;0.20;;
46216;SDS011;47258;59.424;13.482;2023-01-04T13:55:26;2.30;;;0.73;;
46216;SDS011;47258;59.424;13.482;2023-01-04T13:57:55;0.65;;;0.65;;
46216;SDS011;47258;59.424;13.482;2023-01-04T14:00:23;1.02;;;0.75;;
46216;SDS011;47258;59.424;13.482;2023-01-04T14:05:47;2.30;;;0.68;;
46216;SDS011;47258;59.424;13.482;2023-01-04T14:08:19;0.45;;;0.45;;
46216;SDS011;47258;59.424;13.482;2023-01-04T14:10:56;2.33;;;0.60;;
46216;SDS011;47258;59.424;13.482;2023-01-04T14:13:23;0.45;;;0.32;;
46216;SDS011;47258;59.424;13.482;2023-01-04T14:16:02;0.82;;;0.82;;
46216;SDS011;47258;59.424;13.482;2023-01-04T14:18:31;0.43;;;0.43;;
46216;SDS011;47258;59.424;13.482;2023-01-04T14:20:58;0.70;;;0.60;;
46216;SDS011;47258;59.424;13.482;2023-01-04T14:23:25;2.70;;;0.88;;
46216;SDS011;47258;59.424;13.482;2023-01-04T14:28:24;0.88;;;0.88;;
46216;SDS011;47258;59.424;13.482;2023-01-04T14:34:05;0.75;;;0.50;;
46216;SDS011;47258;59.424;13.482;2023-01-04T14:36:36;0.40;;;0.40;;
46216;SDS011;47258;59.424;13.482;2023-01-04T14:41:55;1.85;;;0.40;;
46216;SDS011;47258;59.424;13.482;2023-01-04T14:44:24;0.57;;;0.47;;
46216;SDS011;47258;59.424;13.482;2023-01-04T14:46:55;0.35;;;0.35;;
46216;SDS011;47258;59.424;13.482;2023-01-04T14:49:24;0.63;;;0.32;;
46216;SDS011;47258;59.424;13.482;2023-01-04T14:51:53;0.57;;;0.57;;
46216;SDS011;47258;59.424;13.482;2023-01-04T14:54:22;0.40;;;0.35;;
46216;SDS011;47258;59.424;13.482;2023-01-04T14:56:50;0.55;;;0.40;;
46216;SDS011;47258;59.424;13.482;2023-01-04T14:59:19;0.57;;;0.35;;
46216;SDS011;47258;59.424;13.482;2023-01-04T15:01:48;1.85;;;0.55;;
46216;SDS011;47258;59.424;13.482;2023-01-04T15:04:15;0.70;;;0.70;;
46216;SDS011;47258;59.424;13.482;2023-01-04T15:06:46;3.67;;;0.60;;
46216;SDS011;47258;59.424;13.482;2023-01-04T15:09:14;1.77;;;0.50;;
46216;SDS011;47258;59.424;13.482;2023-01-04T15:11:41;2.65;;;0.50;;
46216;SDS011;47258;59.424;13.482;2023-01-04T15:14:08;5.72;;;0.77;;
46216;SDS011;47258;59.424;13.482;2023-01-04T15:16:37;0.68;;;0.68;;
46216;SDS011;47258;59.424;13.482;2023-01-04T15:19:04;0.83;;;0.30;;
46216;SDS011;47258;59.424;13.482;2023-01-04T15:21:31;0.20;;;0.20;;
46216;SDS011;47258;59.424;13.482;2023-01-04T15:23:59;3.63;;;0.50;;
46216;SDS011;47258;59.424;13.482;2023-01-04T15:26:26;0.50;;;0.50;;
46216;SDS011;47258;59.424;13.482;2023-01-04T15:28:53;0.25;;;0.20;;
46216;SDS011;47258;59.424;13.482;2023-01-04T15:31:20;0.90;;;0.90;;
46216;SDS011;47258;59.424;13.482;2023-01-04T15:33:49;0.82;;;0.50;;
46216;SDS011;47258;59.424;13.482;2023-01-04T15:36:16;1.90;;;0.40;;
46216;SDS011;47258;59.424;13.482;2023-01-04T15:38:44;0.98;;;0.38;;
46216;SDS011;47258;59.424;13.482;2023-01-04T15:41:12;0.82;;;0.57;;
46216;SDS011;47258;59.424;13.482;2023-01-04T15:44:01;0.80;;;0.80;;
46216;SDS011;47258;59.424;13.482;2023-01-04T15:46:28;0.93;;;0.70;;
46216;SDS011;47258;59.424;13.482;2023-01-04T15:48:57;0.75;;;0.75;;